createdAt,value
2022-12-20T00:02:30.207Z,23.30
2022-12-20T00:05:36.703Z,22.27
2022-12-20T00:08:39.354Z,20.45
2022-12-20T00:11:41.421Z,18.95
2022-12-20T00:14:43.016Z,20.45
2022-12-20T00:17:44.500Z,20.73
2022-12-20T00:20:46.414Z,19.30
2022-12-20T00:23:48.076Z,19.55
2022-12-20T00:26:50.160Z,18.30
2022-12-20T00:29:51.833Z,18.30
2022-12-20T00:32:53.318Z,17.05
2022-12-20T00:35:57.806Z,15.17
2022-12-20T00:39:01.340Z,14.90
2022-12-20T00:42:02.888Z,13.07
2022-12-20T00:45:04.746Z,13.23
2022-12-20T00:48:06.411Z,13.40
2022-12-20T00:51:13.335Z,14.87
2022-12-20T00:54:14.845Z,13.57
2022-12-20T00:57:16.338Z,13.43
2022-12-20T01:00:18.786Z,13.00
2022-12-20T01:03:21.865Z,12.07
2022-12-20T01:06:25.165Z,11.80
2022-12-20T01:09:26.688Z,11.55
2022-12-20T01:12:28.158Z,10.20
2022-12-20T01:15:29.633Z,8.85
2022-12-20T01:18:31.562Z,8.68
2022-12-20T01:21:33.427Z,7.57
2022-12-20T01:24:34.939Z,7.78
2022-12-20T01:27:36.359Z,7.32
2022-12-20T01:30:40.714Z,7.18
2022-12-20T01:33:42.950Z,7.45
2022-12-20T01:36:44.719Z,7.50
2022-12-20T01:39:46.197Z,7.45
2022-12-20T01:42:47.615Z,7.10
2022-12-20T01:45:49.450Z,7.00
2022-12-20T01:48:58.573Z,7.22
2022-12-20T01:52:11.967Z,7.28
2022-12-20T01:55:20.075Z,7.75
2022-12-20T01:58:22.067Z,6.75
2022-12-20T02:01:25.312Z,7.25
2022-12-20T02:04:26.947Z,6.97
2022-12-20T02:07:30.824Z,6.67
2022-12-20T02:11:11.050Z,7.75
2022-12-20T02:14:27.611Z,7.25
2022-12-20T02:17:51.998Z,6.60
2022-12-20T02:21:19.472Z,7.05
2022-12-20T02:24:33.646Z,6.68
2022-12-20T02:27:45.764Z,6.40
2022-12-20T02:30:52.213Z,6.75
2022-12-20T02:33:57.724Z,6.93
2022-12-20T02:36:59.265Z,6.85
2022-12-20T02:43:26.826Z,6.88
2022-12-20T02:46:29.555Z,7.07
2022-12-20T02:49:33.811Z,6.85
2022-12-20T02:52:36.315Z,6.80
2022-12-20T02:55:47.738Z,8.10
2022-12-20T02:58:55.229Z,7.90
2022-12-20T03:01:57.766Z,7.97
2022-12-20T03:05:00.675Z,7.32
2022-12-20T03:08:02.458Z,7.18
2022-12-20T03:11:04.042Z,6.90
2022-12-20T03:14:06.984Z,8.10
2022-12-20T03:20:13.391Z,7.13
2022-12-20T03:23:14.925Z,6.38
2022-12-20T03:26:16.403Z,6.97
2022-12-20T03:29:23.643Z,6.45
2022-12-20T03:32:25.127Z,6.60
2022-12-20T03:35:26.636Z,5.93
2022-12-20T03:38:28.256Z,6.07
2022-12-20T03:41:29.698Z,6.10
2022-12-20T03:44:31.698Z,6.28
2022-12-20T03:47:33.727Z,6.43
2022-12-20T03:50:37.140Z,5.95
2022-12-20T03:56:40.183Z,5.90
2022-12-20T03:59:41.856Z,6.20
2022-12-20T04:02:46.547Z,5.82
2022-12-20T04:05:48.380Z,6.75
2022-12-20T04:08:50.084Z,6.88
2022-12-20T04:11:59.018Z,6.50
2022-12-20T04:15:01.950Z,6.60
2022-12-20T04:18:04.450Z,6.35
2022-12-20T04:21:07.220Z,6.05
2022-12-20T04:24:11.684Z,6.43
2022-12-20T04:27:18.794Z,6.07
2022-12-20T04:30:21.036Z,5.47
2022-12-20T04:33:23.635Z,5.35
2022-12-20T04:36:25.631Z,6.18
2022-12-20T04:39:29.337Z,5.90
2022-12-20T04:42:57.173Z,5.72
2022-12-20T04:45:59.325Z,6.07
2022-12-20T04:52:24.469Z,5.85
2022-12-20T04:55:26.041Z,6.40
2022-12-20T04:58:28.186Z,5.97
2022-12-20T05:01:29.901Z,6.07
2022-12-20T05:04:37.088Z,6.72
2022-12-20T05:07:39.993Z,6.13
2022-12-20T05:13:44.077Z,6.70
2022-12-20T05:16:46.040Z,6.15
2022-12-20T05:19:47.777Z,6.43
2022-12-20T05:23:09.483Z,6.72
2022-12-20T05:26:17.507Z,7.00
2022-12-20T05:29:19.364Z,7.40
2022-12-20T05:32:21.067Z,7.10
2022-12-20T05:35:23.114Z,6.47
2022-12-20T05:38:30.876Z,5.72
2022-12-20T05:41:33.649Z,6.07
2022-12-20T05:47:38.919Z,6.75
2022-12-20T05:50:45.801Z,6.80
2022-12-20T05:53:59.198Z,5.68
2022-12-20T05:57:15.990Z,6.93
2022-12-20T06:00:17.716Z,6.88
2022-12-20T06:03:23.778Z,7.20
2022-12-20T06:06:25.868Z,6.53
2022-12-20T06:12:36.226Z,6.75
2022-12-20T06:18:40.497Z,7.23
2022-12-20T06:21:42.669Z,7.75
2022-12-20T06:24:48.813Z,7.45
2022-12-20T06:27:53.491Z,7.88
2022-12-20T06:30:56.331Z,8.02
2022-12-20T06:34:17.884Z,8.20
2022-12-20T06:37:19.543Z,8.82
2022-12-20T06:40:22.090Z,8.00
2022-12-20T06:46:25.142Z,7.30
2022-12-20T06:49:27.014Z,9.32
2022-12-20T06:52:28.759Z,8.98
2022-12-20T06:55:30.226Z,9.03
2022-12-20T06:58:31.977Z,9.40
2022-12-20T07:01:33.561Z,14.80
2022-12-20T07:04:34.992Z,12.77
2022-12-20T07:07:42.926Z,10.75
2022-12-20T07:10:46.602Z,10.15
2022-12-20T07:13:48.432Z,10.23
2022-12-20T07:16:50.257Z,10.00
2022-12-20T07:19:51.850Z,9.70
2022-12-20T07:22:53.460Z,9.93
2022-12-20T07:25:56.443Z,8.80
2022-12-20T07:28:58.069Z,10.25
2022-12-20T07:31:59.540Z,8.37
2022-12-20T07:35:01.458Z,9.70
2022-12-20T07:38:03.089Z,12.43
2022-12-20T07:41:09.280Z,13.75
2022-12-20T07:44:11.829Z,11.05
2022-12-20T07:47:13.443Z,12.00
2022-12-20T07:50:15.077Z,11.47
2022-12-20T07:53:17.913Z,12.00
2022-12-20T07:56:22.099Z,10.60
2022-12-20T07:59:29.987Z,10.55
2022-12-20T08:02:37.144Z,11.65
2022-12-20T08:05:43.341Z,10.68
2022-12-20T08:08:49.226Z,10.25
2022-12-20T08:11:51.669Z,9.90
2022-12-20T08:17:57.697Z,13.63
2022-12-20T08:20:59.151Z,12.93
2022-12-20T08:24:00.646Z,13.40
2022-12-20T08:27:02.192Z,12.82
2022-12-20T08:30:04.795Z,13.63
2022-12-20T08:33:06.356Z,24.65
2022-12-20T08:36:11.529Z,15.67
2022-12-20T08:39:13.031Z,13.95
2022-12-20T08:42:14.760Z,17.67
2022-12-20T08:45:16.633Z,15.93
2022-12-20T08:48:18.118Z,15.95
2022-12-20T08:51:19.680Z,15.27
2022-12-20T08:54:21.251Z,15.60
2022-12-20T08:57:22.737Z,15.63
2022-12-20T09:00:24.383Z,16.05
2022-12-20T09:03:26.747Z,16.60
2022-12-20T09:06:28.265Z,15.85
2022-12-20T09:09:29.737Z,15.48
2022-12-20T09:12:31.211Z,15.90
2022-12-20T09:15:34.637Z,15.75
2022-12-20T09:18:36.276Z,15.93
2022-12-20T09:21:37.792Z,17.00
2022-12-20T09:24:39.881Z,15.05
2022-12-20T09:27:41.450Z,14.63
2022-12-20T09:30:43.085Z,13.63
2022-12-20T09:33:45.263Z,8.40
2022-12-20T09:36:46.810Z,7.03
2022-12-20T09:39:51.523Z,7.53
2022-12-20T09:42:53.240Z,7.13
2022-12-20T09:45:58.440Z,8.07
2022-12-20T09:49:00.111Z,8.38
2022-12-20T09:52:07.587Z,8.90
2022-12-20T09:55:19.657Z,8.00
2022-12-20T09:58:40.244Z,8.98
2022-12-20T10:01:50.400Z,9.90
2022-12-20T10:04:53.676Z,12.98
2022-12-20T10:08:06.364Z,13.05
2022-12-20T10:14:46.261Z,12.02
2022-12-20T10:18:17.085Z,12.00
2022-12-20T10:21:34.233Z,11.00
2022-12-20T10:24:36.862Z,10.93
2022-12-20T10:27:42.522Z,10.18
2022-12-20T10:30:44.211Z,10.93
2022-12-20T10:33:46.399Z,11.07
2022-12-20T10:36:51.167Z,11.85
2022-12-20T10:39:52.901Z,12.07
2022-12-20T10:42:55.504Z,10.88
2022-12-20T10:46:08.660Z,11.40
2022-12-20T10:49:30.958Z,15.93
2022-12-20T10:52:32.577Z,14.85
2022-12-20T10:55:37.979Z,13.88
2022-12-20T10:58:39.671Z,15.20
2022-12-20T11:01:44.820Z,14.55
2022-12-20T11:05:06.088Z,12.35
2022-12-20T11:08:36.178Z,12.32
2022-12-20T11:11:38.850Z,23.40
2022-12-20T11:14:43.001Z,26.23
2022-12-20T11:17:51.360Z,27.35
2022-12-20T11:21:27.927Z,23.70
2022-12-20T11:24:55.112Z,22.55
2022-12-20T11:28:10.432Z,17.73
2022-12-20T11:31:45.143Z,14.18
2022-12-20T11:35:05.955Z,13.60
2022-12-20T11:38:23.053Z,10.38
2022-12-20T11:41:44.081Z,9.18
2022-12-20T11:45:09.342Z,8.50
2022-12-20T11:48:33.119Z,7.55
2022-12-20T11:51:46.696Z,6.93
2022-12-20T11:54:56.827Z,7.22
2022-12-20T11:58:21.760Z,7.22
2022-12-20T12:01:33.813Z,7.40
2022-12-20T12:04:41.835Z,7.68
2022-12-20T12:07:47.618Z,7.35
2022-12-20T12:11:02.502Z,7.43
2022-12-20T12:14:05.819Z,7.40
2022-12-20T12:17:17.864Z,7.20
2022-12-20T12:20:45.337Z,8.13
2022-12-20T12:24:08.225Z,8.20
2022-12-20T12:27:21.479Z,8.68
2022-12-20T12:30:23.411Z,10.35
2022-12-20T12:33:38.684Z,9.77
2022-12-20T12:37:18.017Z,9.32
2022-12-20T12:40:41.041Z,8.38
2022-12-20T12:43:53.210Z,8.73
2022-12-20T12:47:05.322Z,9.23
2022-12-20T12:50:16.897Z,8.82
2022-12-20T12:53:23.716Z,10.50
2022-12-20T12:56:43.912Z,9.25
2022-12-20T12:59:48.815Z,10.80
2022-12-20T13:02:51.908Z,8.18
2022-12-20T13:05:53.589Z,9.43
2022-12-20T13:08:57.965Z,8.60
2022-12-20T13:12:03.337Z,8.70
2022-12-20T13:15:22.533Z,9.40
2022-12-20T13:18:25.631Z,12.40
2022-12-20T13:21:37.219Z,11.00
2022-12-20T13:24:59.168Z,11.25
2022-12-20T13:28:18.769Z,11.32
2022-12-20T13:31:31.496Z,10.05
2022-12-20T13:34:52.348Z,7.93
2022-12-20T13:38:11.603Z,8.50
2022-12-20T13:41:41.374Z,9.00
2022-12-20T13:44:45.557Z,8.48
2022-12-20T13:47:52.304Z,9.50
2022-12-20T13:50:56.409Z,9.07
2022-12-20T13:54:04.059Z,8.25
2022-12-20T13:57:07.360Z,7.35
2022-12-20T14:00:18.046Z,6.68
2022-12-20T14:03:25.646Z,6.85
2022-12-20T14:06:27.634Z,7.43
2022-12-20T14:09:33.876Z,8.10
2022-12-20T14:12:37.099Z,7.35
2022-12-20T14:15:38.723Z,7.97
2022-12-20T14:18:40.737Z,9.60
2022-12-20T14:21:44.770Z,7.75
2022-12-20T14:24:46.583Z,8.57
2022-12-20T14:27:48.758Z,7.18
2022-12-20T14:30:50.362Z,8.23
2022-12-20T14:34:00.810Z,8.07
2022-12-20T14:37:28.577Z,8.30
2022-12-20T14:40:53.607Z,9.48
2022-12-20T14:43:56.849Z,8.50
2022-12-20T14:47:05.326Z,8.82
2022-12-20T14:50:18.639Z,8.07
2022-12-20T14:53:25.063Z,11.50
2022-12-20T14:56:32.230Z,13.82
2022-12-20T14:59:34.067Z,17.27
2022-12-20T15:03:01.002Z,16.83
2022-12-20T15:06:03.606Z,16.15
2022-12-20T15:09:05.571Z,15.93
2022-12-20T15:12:08.362Z,17.20
2022-12-20T15:15:28.787Z,16.35
2022-12-20T15:18:31.000Z,18.92
2022-12-20T15:21:38.356Z,17.43
2022-12-20T15:24:40.269Z,17.20
2022-12-20T15:27:42.031Z,16.27
2022-12-20T15:30:44.334Z,16.60
2022-12-20T15:33:46.981Z,17.45
2022-12-20T15:36:48.473Z,17.58
2022-12-20T15:39:49.965Z,18.83
2022-12-20T15:42:51.576Z,15.73
2022-12-20T15:45:53.941Z,17.43
2022-12-20T15:51:57.229Z,16.05
2022-12-20T15:54:58.731Z,17.17
2022-12-20T15:58:00.167Z,15.88
2022-12-20T16:01:03.410Z,16.05
2022-12-20T16:04:06.191Z,12.38
2022-12-20T16:07:12.620Z,14.98
2022-12-20T16:10:15.216Z,17.15
2022-12-20T16:13:23.208Z,19.17
2022-12-20T16:16:27.739Z,16.02
2022-12-20T16:19:29.321Z,13.85
2022-12-20T16:22:31.637Z,13.70
2022-12-20T16:25:35.630Z,19.27
2022-12-20T16:28:37.166Z,17.50
2022-12-20T16:31:40.377Z,13.50
2022-12-20T16:34:42.221Z,11.95
2022-12-20T16:37:43.757Z,11.68
2022-12-20T16:40:45.639Z,12.02
2022-12-20T16:43:48.744Z,12.10
2022-12-20T16:46:50.333Z,9.93
2022-12-20T16:49:53.747Z,8.13
2022-12-20T16:52:55.516Z,7.28
2022-12-20T16:55:57.020Z,6.40
2022-12-20T16:59:18.700Z,5.50
2022-12-20T17:02:32.750Z,6.00
2022-12-20T17:05:36.853Z,10.85
2022-12-20T17:11:58.595Z,11.05
2022-12-20T17:15:00.115Z,11.63
2022-12-20T17:18:01.625Z,10.20
2022-12-20T17:21:12.891Z,9.93
2022-12-20T17:24:20.028Z,10.15
2022-12-20T17:27:21.574Z,10.15
2022-12-20T17:30:25.500Z,10.73
2022-12-20T17:33:27.050Z,10.73
2022-12-20T17:36:33.054Z,11.20
2022-12-20T17:39:39.078Z,11.00
2022-12-20T17:42:42.027Z,9.67
2022-12-20T17:45:43.615Z,10.88
2022-12-20T17:48:49.175Z,11.60
2022-12-20T17:51:51.540Z,11.45
2022-12-20T17:57:55.279Z,11.15
2022-12-20T18:04:03.949Z,11.10
2022-12-20T18:07:05.926Z,12.05
2022-12-20T18:10:08.233Z,10.60
2022-12-20T18:13:10.078Z,11.15
2022-12-20T18:16:12.908Z,10.43
2022-12-20T18:19:19.167Z,11.30
2022-12-20T18:22:20.681Z,9.60
2022-12-20T18:25:22.185Z,10.03
2022-12-20T18:28:23.685Z,10.50
2022-12-20T18:31:27.553Z,9.90
2022-12-20T18:34:29.081Z,10.07
2022-12-20T18:37:30.557Z,10.20
2022-12-20T18:40:31.995Z,11.13
2022-12-20T18:43:35.100Z,11.20
2022-12-20T18:46:36.747Z,11.52
2022-12-20T18:49:38.249Z,11.38
2022-12-20T18:52:41.187Z,12.98
2022-12-20T18:55:44.679Z,13.48
2022-12-20T18:58:50.084Z,15.00
2022-12-20T19:01:52.644Z,13.38
2022-12-20T19:04:54.477Z,14.48
2022-12-20T19:07:56.036Z,14.68
2022-12-20T19:10:59.595Z,15.50
2022-12-20T19:14:01.100Z,17.42
2022-12-20T19:17:02.606Z,14.50
2022-12-20T19:20:05.087Z,14.70
2022-12-20T19:23:08.072Z,13.23
2022-12-20T19:26:12.183Z,10.57
2022-12-20T19:29:13.686Z,8.90
2022-12-20T19:32:15.491Z,6.90
2022-12-20T19:35:53.595Z,8.43
2022-12-20T19:38:43.654Z,9.15
2022-12-20T19:41:55.042Z,9.60
2022-12-20T19:45:07.034Z,8.20
2022-12-20T19:48:08.640Z,8.55
2022-12-20T19:51:13.736Z,8.90
2022-12-20T19:54:15.260Z,9.18
2022-12-20T19:57:16.758Z,10.17
2022-12-20T20:00:18.518Z,11.27
2022-12-20T20:03:21.444Z,11.60
2022-12-20T20:06:24.186Z,11.27
2022-12-20T20:09:25.853Z,11.57
2022-12-20T20:12:27.289Z,11.27
2022-12-20T20:15:28.910Z,13.82
2022-12-20T20:18:33.768Z,16.83
2022-12-20T20:21:36.612Z,15.85
2022-12-20T20:24:38.337Z,13.27
2022-12-20T20:27:39.900Z,14.23
2022-12-20T20:30:43.232Z,15.23
2022-12-20T20:33:44.806Z,13.68
2022-12-20T20:36:46.234Z,14.00
2022-12-20T20:39:47.809Z,12.85
2022-12-20T20:42:51.587Z,12.60
2022-12-20T20:45:53.190Z,12.80
2022-12-20T20:48:54.747Z,13.40
2022-12-20T20:51:56.267Z,15.97
2022-12-20T20:54:57.687Z,16.13
2022-12-20T20:57:59.290Z,16.80
2022-12-20T21:01:03.249Z,14.53
2022-12-20T21:04:05.359Z,12.90
2022-12-20T21:07:07.051Z,12.52
2022-12-20T21:10:09.339Z,10.88
2022-12-20T21:16:22.217Z,11.25
2022-12-20T21:19:24.023Z,10.70
2022-12-20T21:22:25.578Z,10.87
2022-12-20T21:25:27.106Z,9.77
2022-12-20T21:28:28.618Z,11.23
2022-12-20T21:31:30.874Z,10.57
2022-12-20T21:37:34.102Z,10.07
2022-12-20T21:40:35.576Z,9.90
2022-12-20T21:43:37.132Z,10.48
2022-12-20T21:46:38.611Z,11.80
2022-12-20T21:49:40.318Z,12.73
2022-12-20T21:52:44.797Z,13.93
2022-12-20T21:55:46.205Z,11.20
2022-12-20T21:58:48.338Z,13.95
2022-12-20T22:01:50.131Z,13.38
2022-12-20T22:04:51.819Z,11.25
2022-12-20T22:07:53.229Z,13.60
2022-12-20T22:11:06.942Z,12.38
2022-12-20T22:14:12.089Z,9.90
2022-12-20T22:17:13.591Z,10.75
2022-12-20T22:20:15.100Z,11.57
2022-12-20T22:23:17.276Z,10.40
2022-12-20T22:26:21.189Z,9.35
2022-12-20T22:29:22.716Z,12.98
2022-12-20T22:32:24.211Z,12.70
2022-12-20T22:35:25.655Z,13.37
2022-12-20T22:38:27.368Z,17.10
2022-12-20T22:41:31.240Z,15.38
2022-12-20T22:44:32.774Z,11.85
2022-12-20T22:47:34.833Z,13.03
2022-12-20T22:50:36.356Z,11.07
2022-12-20T22:53:38.160Z,9.03
2022-12-20T22:56:39.618Z,7.85
2022-12-20T22:59:41.286Z,9.25
2022-12-20T23:02:42.898Z,8.40
2022-12-20T23:05:56.357Z,6.47
2022-12-20T23:08:57.883Z,6.35
2022-12-20T23:12:18.256Z,5.20
2022-12-20T23:15:38.663Z,4.97
2022-12-20T23:18:40.275Z,5.28
2022-12-20T23:22:00.574Z,4.55
2022-12-20T23:25:02.217Z,4.78
2022-12-20T23:28:03.729Z,4.45
2022-12-20T23:31:06.259Z,5.70
2022-12-20T23:34:08.039Z,4.40
2022-12-20T23:37:09.559Z,4.30
2022-12-20T23:40:12.160Z,3.87
2022-12-20T23:43:13.686Z,3.95
2022-12-20T23:46:17.087Z,4.60
2022-12-20T23:49:18.565Z,4.72
2022-12-20T23:52:19.998Z,4.77
2022-12-20T23:55:21.489Z,4.28
2022-12-20T23:58:22.899Z,4.03
